createdAt,value
2016-04-21T00:00:49.614Z,30.54
2016-04-21T00:01:49.648Z,30.44
2016-04-21T00:02:49.714Z,30.54
2016-04-21T00:03:49.592Z,30.44
2016-04-21T00:04:49.563Z,30.44
2016-04-21T00:05:49.550Z,30.44
2016-04-21T00:06:49.536Z,30.82
2016-04-21T00:07:49.524Z,30.35
2016-04-21T00:08:49.511Z,30.44
2016-04-21T00:09:49.483Z,30.35
2016-04-21T00:10:49.720Z,30.73
2016-04-21T00:11:49.441Z,30.73
2016-04-21T00:12:49.428Z,30.63
2016-04-21T00:13:49.400Z,30.71
2016-04-21T00:14:49.387Z,30.63
2016-04-21T00:15:49.358Z,30.52
2016-04-21T00:16:49.345Z,30.52
2016-04-21T00:17:49.332Z,30.82
2016-04-21T00:18:49.710Z,31.02
2016-04-21T00:19:49.291Z,30.81
2016-04-21T00:20:49.279Z,30.92
2016-04-21T00:21:49.265Z,30.82
2016-04-21T00:22:49.237Z,30.92
2016-04-21T00:23:49.207Z,30.82
2016-04-21T00:24:49.210Z,30.92
2016-04-21T00:25:49.337Z,30.9
2016-04-21T00:26:49.153Z,30.9
2016-04-21T00:27:49.140Z,31.02
2016-04-21T00:28:49.128Z,31
2016-04-21T00:29:49.099Z,31
2016-04-21T00:30:49.086Z,31
2016-04-21T00:31:49.073Z,31
2016-04-21T00:32:49.044Z,31.2
2016-04-21T00:33:49.281Z,31.2
2016-04-21T00:34:49.003Z,31.2
2016-04-21T00:35:49.005Z,31.1
2016-04-21T00:36:48.978Z,31.1
2016-04-21T00:37:48.949Z,31.2
2016-04-21T00:38:48.935Z,31.1
2016-04-21T00:39:48.908Z,31.1
2016-04-21T00:40:48.894Z,31.1
2016-04-21T00:41:49.334Z,31.29
2016-04-21T00:42:48.868Z,31.2
2016-04-21T00:43:48.855Z,31.2
2016-04-21T00:44:48.811Z,31.1
2016-04-21T00:45:48.799Z,31.2
2016-04-21T00:46:48.785Z,31.29
2016-04-21T00:47:48.757Z,31.29
2016-04-21T00:48:48.743Z,31.58
2016-04-21T00:49:49.324Z,31.38
2016-04-21T00:50:48.702Z,31.58
2016-04-21T00:51:48.689Z,31.58
2016-04-21T00:52:48.677Z,31.29
2016-04-21T00:53:48.663Z,31.58
2016-04-21T00:54:48.635Z,31.29
2016-04-21T00:55:48.623Z,31.48
2016-04-21T00:56:48.593Z,31.38
2016-04-21T00:57:49.424Z,31.38
2016-04-21T00:58:48.551Z,31.48
2016-04-21T00:59:48.539Z,31.58
2016-04-21T01:00:48.511Z,31.58
2016-04-21T01:01:48.498Z,31.67
2016-04-21T01:02:48.484Z,31.67
2016-04-21T01:03:48.472Z,31.48
2016-04-21T01:04:48.474Z,31.48
2016-04-21T01:05:48.678Z,31.48
2016-04-21T01:06:48.509Z,31.58
2016-04-21T01:07:48.540Z,31.48
2016-04-21T01:08:48.557Z,31.58
2016-04-21T01:09:48.579Z,31.67
2016-04-21T01:10:48.583Z,31.87
2016-04-21T01:11:48.602Z,31.77
2016-04-21T01:12:48.575Z,31.77
2016-04-21T01:13:48.922Z,31.77
2016-04-21T01:14:48.562Z,31.87
2016-04-21T01:15:48.555Z,31.87
2016-04-21T01:16:48.532Z,31.87
2016-04-21T01:17:48.525Z,31.87
2016-04-21T01:18:48.518Z,31.77
2016-04-21T01:19:48.494Z,31.96
2016-04-21T01:20:48.484Z,31.87
2016-04-21T01:21:48.456Z,31.87
2016-04-21T01:22:48.451Z,31.96
2016-04-21T01:23:48.423Z,32.06
2016-04-21T01:24:48.413Z,32.15
2016-04-21T01:25:48.401Z,32.25
2016-04-21T01:26:48.373Z,32.25
2016-04-21T01:27:48.361Z,31.87
2016-04-21T01:28:48.333Z,31.96
2016-04-21T01:29:48.320Z,32.06
2016-04-21T01:30:48.308Z,31.96
2016-04-21T01:31:48.280Z,32.15
2016-04-21T01:32:48.267Z,31.87
2016-04-21T01:33:48.254Z,31.87
2016-04-21T01:34:48.226Z,31.96
2016-04-21T01:35:48.198Z,32.06
2016-04-21T01:36:48.185Z,32.15
2016-04-21T01:37:48.172Z,32.25
2016-04-21T01:38:48.160Z,32.15
2016-04-21T01:39:48.146Z,32.06
2016-04-21T01:40:48.134Z,32.15
2016-04-21T01:41:48.089Z,32.15
2016-04-21T01:42:48.076Z,32.25
2016-04-21T01:43:48.047Z,32.44
2016-04-21T01:44:48.034Z,32.54
2016-04-21T01:45:48.022Z,32.64
2016-04-21T01:46:47.993Z,32.54
2016-04-21T01:47:47.981Z,32.34
2016-04-21T01:48:47.952Z,32.34
2016-04-21T01:49:47.939Z,32.34
2016-04-21T01:50:47.925Z,32.42
2016-04-21T01:51:47.913Z,32.44
2016-04-21T01:52:47.884Z,32.34
2016-04-21T01:53:47.856Z,32.54
2016-04-21T01:54:47.844Z,32.54
2016-04-21T01:55:47.830Z,32.64
2016-04-21T01:56:47.817Z,32.54
2016-04-21T01:57:47.788Z,32.34
2016-04-21T01:58:47.775Z,32.44
2016-04-21T01:59:47.746Z,32.34
2016-04-21T02:00:47.734Z,32.54
2016-04-21T02:01:47.721Z,32.54
2016-04-21T02:02:47.693Z,32.44
2016-04-21T02:03:47.680Z,32.54
2016-04-21T02:05:51.623Z,32.62
2016-04-21T02:06:51.593Z,32.54
2016-04-21T02:07:51.582Z,32.44
2016-04-21T02:08:51.568Z,32.71
2016-04-21T02:09:51.555Z,32.42
2016-04-21T02:10:51.526Z,32.42
2016-04-21T02:11:51.498Z,32.73
2016-04-21T02:12:51.484Z,32.44
2016-04-21T02:13:51.457Z,32.73
2016-04-21T02:14:51.444Z,32.73
2016-04-21T02:15:51.431Z,32.42
2016-04-21T02:16:51.402Z,32.73
2016-04-21T02:17:51.389Z,32.54
2016-04-21T02:18:51.360Z,32.34
2016-04-21T02:19:51.347Z,32.92
2016-04-21T02:20:51.335Z,32.73
2016-04-21T02:21:51.322Z,32.52
2016-04-21T02:22:51.293Z,32.81
2016-04-21T02:23:51.280Z,32.71
2016-04-21T02:24:51.253Z,32.9
2016-04-21T02:25:51.239Z,33.09
2016-04-21T02:26:51.226Z,33.21
2016-04-21T02:27:51.197Z,32.62
2016-04-21T02:28:51.185Z,33.01
2016-04-21T02:29:51.156Z,33.11
2016-04-21T02:30:51.143Z,33.09
2016-04-21T02:31:51.114Z,33.09
2016-04-21T02:32:51.101Z,33.09
2016-04-21T02:33:51.088Z,33.19
2016-04-21T02:34:51.060Z,33.19
2016-04-21T02:35:51.046Z,33.29
2016-04-21T02:36:51.019Z,33.09
2016-04-21T02:37:51.005Z,33.19
2016-04-21T02:38:50.837Z,33.29
2016-04-21T02:39:50.965Z,33.09
2016-04-21T02:40:50.951Z,33.09
2016-04-21T02:41:50.938Z,33.29
2016-04-21T02:42:50.925Z,33.19
2016-04-21T02:43:50.896Z,33.19
2016-04-21T02:44:50.884Z,33.09
2016-04-21T02:45:50.855Z,33.09
2016-04-21T02:47:22.189Z,33.29
2016-04-21T02:47:50.829Z,33.09
2016-04-21T02:48:50.801Z,33.39
2016-04-21T02:49:50.772Z,33.19
2016-04-21T02:50:50.962Z,33.29
2016-04-21T02:51:50.747Z,33.09
2016-04-21T02:52:50.717Z,33.29
2016-04-21T02:53:50.705Z,33.39
2016-04-21T02:54:50.676Z,33.39
2016-04-21T02:55:50.663Z,33.58
2016-04-21T02:56:50.635Z,33.39
2016-04-21T02:57:50.621Z,33.39
2016-04-21T02:58:50.953Z,33.39
2016-04-21T02:59:50.580Z,33.39
2016-04-21T03:00:50.567Z,33.48
2016-04-21T03:01:50.539Z,33.58
2016-04-21T03:02:50.526Z,33.77
2016-04-21T03:03:50.513Z,33.67
2016-04-21T03:04:50.485Z,33.58
2016-04-21T03:05:50.471Z,33.58
2016-04-21T03:06:51.005Z,33.39
2016-04-21T03:07:50.429Z,33.39
2016-04-21T03:08:50.417Z,33.48
2016-04-21T03:09:50.405Z,33.29
2016-04-21T03:10:50.376Z,33.48
2016-04-21T03:11:50.363Z,33.29
2016-04-21T03:12:50.334Z,33.48
2016-04-21T03:13:50.321Z,33.19
2016-04-21T03:14:50.996Z,33.48
2016-04-21T03:15:50.279Z,33.58
2016-04-21T03:16:50.267Z,33.58
2016-04-21T03:17:50.237Z,33.48
2016-04-21T03:18:50.225Z,33.67
2016-04-21T03:19:50.197Z,33.67
2016-04-21T03:20:50.183Z,33.67
2016-04-21T03:21:50.160Z,33.67
2016-04-21T03:22:50.291Z,33.77
2016-04-21T03:23:50.123Z,33.58
2016-04-21T03:24:50.109Z,33.67
2016-04-21T03:25:50.081Z,33.67
2016-04-21T03:26:50.068Z,33.77
2016-04-21T03:27:50.039Z,33.67
2016-04-21T03:28:50.027Z,33.48
2016-04-21T03:29:49.998Z,33.67
2016-04-21T03:30:50.281Z,33.67
2016-04-21T03:31:49.956Z,33.58
2016-04-21T03:32:49.959Z,33.58
2016-04-21T03:33:49.931Z,33.67
2016-04-21T03:34:49.917Z,33.48
2016-04-21T03:35:49.889Z,33.67
2016-04-21T03:36:49.876Z,33.58
2016-04-21T03:37:49.864Z,33.48
2016-04-21T03:38:50.288Z,33.67
2016-04-21T03:39:49.822Z,33.67
2016-04-21T03:40:49.793Z,33.48
2016-04-21T03:41:49.780Z,33.48
2016-04-21T03:42:49.752Z,33.48
2016-04-21T03:43:49.739Z,33.48
2016-04-21T03:44:49.725Z,33.67
2016-04-21T03:45:49.853Z,33.48
2016-04-21T03:46:49.668Z,33.58
2016-04-21T03:47:49.656Z,33.48
2016-04-21T03:48:49.643Z,33.48
2016-04-21T03:49:49.630Z,33.58
2016-04-21T03:50:49.616Z,33.58
2016-04-21T03:51:49.588Z,33.67
2016-04-21T03:52:49.575Z,33.67
2016-04-21T03:53:49.891Z,33.96
2016-04-21T03:54:49.518Z,33.96
2016-04-21T03:55:49.505Z,33.58
2016-04-21T03:56:49.477Z,33.58
2016-04-21T03:57:49.464Z,33.58
2016-04-21T03:58:49.451Z,33.29
2016-04-21T03:59:49.422Z,33.96
2016-04-21T04:00:49.409Z,34.06
2016-04-21T04:01:49.896Z,33.86
2016-04-21T04:02:49.384Z,33.96
2016-04-21T04:03:49.355Z,33.96
2016-04-21T04:04:49.326Z,33.77
2016-04-21T04:05:49.314Z,33.86
2016-04-21T04:06:49.284Z,34.06
2016-04-21T04:07:49.272Z,34.25
2016-04-21T04:08:49.243Z,33.96
2016-04-21T04:09:49.887Z,34.53
2016-04-21T04:10:49.217Z,34.53
2016-04-21T04:11:49.205Z,34.53
2016-04-21T04:12:49.175Z,34.53
2016-04-21T04:13:49.163Z,34.53
2016-04-21T04:14:49.134Z,34.44
2016-04-21T04:15:49.137Z,34.44
2016-04-21T04:16:49.093Z,34.44
2016-04-21T04:17:49.174Z,34.34
2016-04-21T04:18:49.067Z,34.53
2016-04-21T04:19:49.038Z,34.53
2016-04-21T04:20:49.026Z,34.44
2016-04-21T04:21:49.029Z,34.34
2016-04-21T04:22:48.985Z,34.34
2016-04-21T04:23:48.955Z,34.33
2016-04-21T04:24:48.943Z,34.25
2016-04-21T04:25:49.179Z,34.44
2016-04-21T04:26:48.901Z,34.15
2016-04-21T04:27:48.888Z,34.15
2016-04-21T04:28:48.875Z,34.15
2016-04-21T04:29:48.847Z,34.15
2016-04-21T04:30:48.834Z,34.15
2016-04-21T04:31:48.806Z,33.94
2016-04-21T04:32:48.792Z,34.25
2016-04-21T04:33:49.217Z,34.23
2016-04-21T04:34:48.750Z,34.25
2016-04-21T04:35:48.723Z,34.33
2016-04-21T04:36:48.709Z,34.34
2016-04-21T04:37:48.697Z,34.15
2016-04-21T04:38:48.684Z,34.34
2016-04-21T04:39:48.655Z,34.33
2016-04-21T04:40:48.642Z,34.33
2016-04-21T04:41:48.613Z,34.25
2016-04-21T04:42:48.600Z,34.44
2016-04-21T04:43:48.572Z,34.25
2016-04-21T04:44:48.559Z,34.34
2016-04-21T04:45:48.530Z,34.53
2016-04-21T04:46:48.517Z,34.53
2016-04-21T04:47:48.504Z,34.52
2016-04-21T04:48:48.477Z,34.53
2016-04-21T04:49:48.463Z,34.34
2016-04-21T04:50:48.435Z,34.53
2016-04-21T04:51:48.421Z,34.44
2016-04-21T04:52:48.393Z,34.63
2016-04-21T04:53:48.240Z,34.44
2016-04-21T04:54:48.368Z,34.53
2016-04-21T04:55:48.339Z,34.71
2016-04-21T04:56:48.326Z,34.61
2016-04-21T04:57:48.297Z,34.73
2016-04-21T04:58:48.284Z,34.71
2016-04-21T04:59:48.271Z,34.52
2016-04-21T05:00:48.242Z,34.53
2016-04-21T05:01:48.230Z,34.53
2016-04-21T05:02:48.201Z,34.53
2016-04-21T05:03:48.188Z,34.63
2016-04-21T05:04:48.175Z,34.63
2016-04-21T05:05:48.147Z,34.63
2016-04-21T05:06:48.117Z,34.82
2016-04-21T05:07:48.105Z,34.82
2016-04-21T05:08:48.093Z,34.82
2016-04-21T05:09:48.095Z,34.82
2016-04-21T05:10:48.051Z,34.73
2016-04-21T05:11:48.022Z,34.73
2016-04-21T05:12:48.009Z,34.71
2016-04-21T05:13:47.996Z,34.73
2016-04-21T05:14:47.967Z,34.63
2016-04-21T05:15:47.955Z,34.82
2016-04-21T05:16:47.942Z,34.63
2016-04-21T05:17:47.913Z,34.63
2016-04-21T05:18:47.900Z,34.53
2016-04-21T05:19:47.872Z,34.73
2016-04-21T05:20:47.859Z,34.73
2016-04-21T05:21:47.830Z,34.92
2016-04-21T05:22:47.818Z,35.02
2016-04-21T05:23:47.835Z,35.11
2016-04-21T05:24:47.791Z,34.92
2016-04-21T05:25:47.763Z,35.11
2016-04-21T05:26:47.734Z,35.02
2016-04-21T05:27:47.721Z,35.02
2016-04-21T05:28:47.693Z,34.92
2016-04-21T05:29:47.680Z,34.92
2016-04-21T05:30:47.668Z,35.11
2016-04-21T05:31:47.638Z,35.02
2016-04-21T05:32:47.626Z,34.63
2016-04-21T05:33:47.649Z,34.63
2016-04-21T05:34:47.462Z,34.82
2016-04-21T05:35:47.436Z,34.73
2016-04-21T05:36:47.563Z,34.73
2016-04-21T05:37:47.806Z,34.44
2016-04-21T05:38:47.512Z,34.82
2016-04-21T05:39:47.484Z,34.52
2016-04-21T05:40:47.471Z,34.44
2016-04-21T05:41:47.442Z,34.52
2016-04-21T05:42:47.428Z,34.44
2016-04-21T05:43:47.401Z,34.53
2016-04-21T05:44:47.387Z,34.63
2016-04-21T05:45:47.374Z,34.71
2016-04-21T05:46:47.362Z,34.63
2016-04-21T05:47:47.333Z,34.44
2016-04-21T05:48:47.305Z,34.53
2016-04-21T05:49:47.292Z,34.44
2016-04-21T05:50:47.278Z,34.44
2016-04-21T05:51:47.266Z,34.34
2016-04-21T05:52:47.236Z,34.42
2016-04-21T05:53:47.209Z,34.44
2016-04-21T05:54:47.196Z,34.63
2016-04-21T05:55:47.182Z,34.44
2016-04-21T05:56:47.155Z,34.53
2016-04-21T05:57:47.141Z,34.44
2016-04-21T05:58:47.112Z,34.53
2016-04-21T05:59:47.100Z,34.34
2016-04-21T06:00:47.071Z,34.63
2016-04-21T06:01:47.168Z,34.34
2016-04-21T06:02:47.046Z,34.73
2016-04-21T06:03:47.016Z,34.82
2016-04-21T06:04:47.004Z,34.44
2016-04-21T06:05:46.991Z,34.34
2016-04-21T06:06:46.962Z,34.44
2016-04-21T06:07:46.949Z,34.44
2016-04-21T06:08:46.920Z,34.73
2016-04-21T06:09:47.157Z,34.63
2016-04-21T06:10:46.879Z,34.53
2016-04-21T06:11:46.867Z,34.44
2016-04-21T06:12:46.853Z,34.53
2016-04-21T06:13:46.825Z,34.53
2016-04-21T06:14:46.812Z,34.53
2016-04-21T06:15:46.784Z,34.53
2016-04-21T06:16:46.770Z,34.44
2016-04-21T06:17:47.195Z,34.53
2016-04-21T06:18:46.729Z,34.53
2016-04-21T06:19:46.716Z,34.82
2016-04-21T06:20:46.687Z,34.82
2016-04-21T06:21:46.674Z,34.82
2016-04-21T06:22:46.646Z,34.73
2016-04-21T06:23:46.633Z,34.63
2016-04-21T06:24:46.604Z,34.82
2016-04-21T06:25:47.200Z,34.63
2016-04-21T06:26:46.625Z,34.63
2016-04-21T06:27:46.550Z,34.73
2016-04-21T06:28:46.537Z,34.73
2016-04-21T06:29:46.508Z,34.63
2016-04-21T06:30:46.496Z,34.63
2016-04-21T06:31:46.467Z,34.63
2016-04-21T06:32:46.455Z,34.53
2016-04-21T06:33:46.488Z,34.63
2016-04-21T06:34:46.413Z,34.92
2016-04-21T06:35:46.399Z,35.02
2016-04-21T06:36:46.371Z,35.11
2016-04-21T06:37:46.358Z,34.63
2016-04-21T06:38:46.346Z,34.92
2016-04-21T06:39:46.317Z,35.02
2016-04-21T06:40:46.304Z,34.92
2016-04-21T06:41:46.479Z,35.02
2016-04-21T06:42:46.262Z,35.02
2016-04-21T06:43:46.092Z,34.82
2016-04-21T06:44:46.237Z,34.92
2016-04-21T06:45:46.192Z,34.92
2016-04-21T06:46:46.179Z,34.92
2016-04-21T06:47:46.167Z,34.92
2016-04-21T06:48:46.154Z,34.92
2016-04-21T06:49:46.484Z,35.02
2016-04-21T06:50:46.112Z,34.92
2016-04-21T06:51:46.084Z,35.11
2016-04-21T06:52:46.070Z,34.92
2016-04-21T06:53:46.058Z,34.94
2016-04-21T06:54:46.029Z,34.92
2016-04-21T06:55:46.000Z,35.11
2016-04-21T06:56:46.081Z,35.11
2016-04-21T06:57:45.975Z,35.02
2016-04-21T06:58:45.961Z,34.94
2016-04-21T06:59:45.933Z,35.3
2016-04-21T07:00:45.905Z,35.22
2016-04-21T07:01:45.891Z,35.03
2016-04-21T07:02:45.879Z,35.13
2016-04-21T07:03:45.866Z,34.94
2016-04-21T07:04:46.087Z,35.13
2016-04-21T07:05:45.808Z,35.13
2016-04-21T07:06:45.796Z,35.13
2016-04-21T07:07:45.782Z,35.03
2016-04-21T07:08:45.770Z,35.22
2016-04-21T07:09:45.726Z,35.21
2016-04-21T07:10:45.712Z,35.71
2016-04-21T07:11:45.715Z,35.22
2016-04-21T07:12:46.077Z,35.22
2016-04-21T07:13:45.674Z,35.22
2016-04-21T07:14:45.645Z,35.22
2016-04-21T07:15:45.632Z,35.22
2016-04-21T07:16:45.603Z,35.13
2016-04-21T07:17:45.606Z,35.22
2016-04-21T07:18:47.875Z,35.22
2016-04-21T07:19:45.533Z,35.13
2016-04-21T07:20:46.084Z,35.51
2016-04-21T07:21:45.523Z,35.61
2016-04-21T07:22:45.494Z,35.61
2016-04-21T07:23:45.467Z,35.61
2016-04-21T07:24:45.454Z,35.49
2016-04-21T07:25:45.441Z,35.22
2016-04-21T07:26:45.412Z,35.22
2016-04-21T07:27:45.400Z,35.22
2016-04-21T07:28:45.370Z,35.13
2016-04-21T07:29:45.358Z,35.61
2016-04-21T07:30:45.344Z,35.8
2016-04-21T07:31:45.316Z,35.22
2016-04-21T07:32:45.303Z,35.51
2016-04-21T07:33:45.290Z,35.51
2016-04-21T07:34:45.261Z,35.61
2016-04-21T07:35:45.248Z,35.51
2016-04-21T07:36:45.376Z,35.51
2016-04-21T07:37:45.192Z,35.42
2016-04-21T07:38:45.194Z,35.51
2016-04-21T07:39:45.165Z,35.42
2016-04-21T07:40:45.138Z,35.61
2016-04-21T07:41:45.140Z,35.51
2016-04-21T07:42:45.112Z,35.51
2016-04-21T07:43:45.115Z,35.42
2016-04-21T07:44:46.117Z,35.32
2016-04-21T07:45:45.041Z,35.42
2016-04-21T07:46:45.028Z,35.42
2016-04-21T07:47:45.015Z,35.71
2016-04-21T07:48:44.987Z,35.61
2016-04-21T07:49:44.973Z,35.32
2016-04-21T07:50:44.945Z,35.32
2016-04-21T07:51:44.932Z,35.71
2016-04-21T07:52:44.920Z,35.42
2016-04-21T07:53:44.891Z,35.51
2016-04-21T07:54:44.878Z,35.42
2016-04-21T07:55:45.084Z,35.51
2016-04-21T07:56:44.836Z,35.8
2016-04-21T07:57:44.823Z,35.51
2016-04-21T07:58:44.795Z,35.42
2016-04-21T07:59:44.782Z,35.71
2016-04-21T08:00:44.769Z,35.42
2016-04-21T08:01:44.755Z,35.51
2016-04-21T08:02:44.728Z,35.42
2016-04-21T08:03:44.714Z,35.42
2016-04-21T08:04:44.685Z,35.51
2016-04-21T08:05:44.674Z,35.42
2016-04-21T08:06:44.660Z,35.51
2016-04-21T08:07:44.632Z,35.42
2016-04-21T08:08:44.619Z,35.42
2016-04-21T08:09:44.590Z,35.42
2016-04-21T08:10:44.577Z,35.42
2016-04-21T08:11:44.548Z,35.89
2016-04-21T08:12:44.551Z,35.42
2016-04-21T08:13:44.507Z,35.61
2016-04-21T08:14:44.494Z,35.8
2016-04-21T08:15:44.482Z,35.42
2016-04-21T08:16:44.468Z,35.42
2016-04-21T08:17:44.440Z,35.99
2016-04-21T08:18:44.411Z,35.71
2016-04-21T08:19:44.399Z,35.43
2016-04-21T08:20:44.385Z,35.91
2016-04-21T08:21:44.357Z,35.72
2016-04-21T08:22:44.344Z,35.42
2016-04-21T08:23:44.330Z,35.91
2016-04-21T08:24:44.318Z,35.82
2016-04-21T08:25:44.320Z,35.43
2016-04-21T08:26:44.276Z,35.53
2016-04-21T08:27:44.263Z,35.63
2016-04-21T08:28:44.236Z,35.61
2016-04-21T08:29:44.206Z,35.91
2016-04-21T08:30:44.193Z,35.82
2016-04-21T08:31:44.165Z,35.82
2016-04-21T08:32:44.152Z,35.91
2016-04-21T08:33:44.139Z,35.63
2016-04-21T08:34:44.127Z,35.72
2016-04-21T08:35:44.097Z,35.72
2016-04-21T08:36:44.085Z,35.63
2016-04-21T08:37:44.055Z,35.63
2016-04-21T08:38:44.043Z,35.72
2016-04-21T08:39:44.030Z,36.01
2016-04-21T08:40:44.001Z,35.91
2016-04-21T08:41:43.989Z,36.01
2016-04-21T08:42:43.960Z,35.53
2016-04-21T08:43:43.947Z,35.53
2016-04-21T08:44:43.935Z,35.43
2016-04-21T08:45:43.906Z,35.43
2016-04-21T08:46:43.892Z,35.43
2016-04-21T08:47:43.865Z,35.53
2016-04-21T08:48:43.852Z,35.43
2016-04-21T08:49:43.838Z,35.53
2016-04-21T08:50:43.809Z,35.53
2016-04-21T08:51:43.797Z,35.63
2016-04-21T08:52:43.789Z,35.72
2016-04-21T08:53:43.761Z,35.53
2016-04-21T08:54:43.747Z,35.53
2016-04-21T08:55:43.719Z,35.53
2016-04-21T08:56:43.705Z,36.3
2016-04-21T08:57:43.677Z,35.43
2016-04-21T08:58:43.664Z,35.53
2016-04-21T08:59:43.651Z,36.01
2016-04-21T09:00:43.638Z,36.01
2016-04-21T09:01:43.611Z,35.82
2016-04-21T09:02:43.597Z,35.91
2016-04-21T09:03:43.568Z,35.82
2016-04-21T09:04:43.555Z,35.63
2016-04-21T09:05:43.543Z,35.82
2016-04-21T09:06:43.514Z,35.72
2016-04-21T09:07:43.485Z,35.72
2016-04-21T09:08:43.472Z,35.63
2016-04-21T09:09:43.460Z,35.63
2016-04-21T09:10:43.446Z,35.82
2016-04-21T09:11:43.418Z,35.82
2016-04-21T09:12:43.404Z,35.72
2016-04-21T09:13:43.377Z,35.72
2016-04-21T09:14:43.364Z,35.63
2016-04-21T09:15:43.335Z,35.63
2016-04-21T09:16:43.322Z,35.63
2016-04-21T09:17:43.309Z,35.72
2016-04-21T09:18:43.280Z,35.63
2016-04-21T09:19:43.268Z,35.53
2016-04-21T09:20:43.364Z,35.53
2016-04-21T09:21:43.242Z,35.72
2016-04-21T09:22:43.213Z,35.63
2016-04-21T09:23:43.200Z,35.43
2016-04-21T09:24:43.203Z,35.43
2016-04-21T09:25:43.159Z,35.53
2016-04-21T09:26:43.146Z,35.53
2016-04-21T09:27:43.118Z,35.43
2016-04-21T09:28:43.355Z,35.43
2016-04-21T09:29:43.092Z,35.34
2016-04-21T09:30:43.063Z,35.34
2016-04-21T09:31:43.050Z,35.82
2016-04-21T09:32:43.021Z,35.53
2016-04-21T09:33:43.008Z,35.43
2016-04-21T09:34:42.996Z,35.72
2016-04-21T09:35:42.983Z,35.43
2016-04-21T09:36:43.407Z,35.34
2016-04-21T09:37:42.925Z,35.63
2016-04-21T09:38:42.912Z,35.63
2016-04-21T09:39:42.900Z,35.53
2016-04-21T09:40:42.887Z,35.63
2016-04-21T09:41:42.858Z,35.34
2016-04-21T09:42:42.829Z,35.82
2016-04-21T09:43:42.816Z,35.72
2016-04-21T09:44:43.398Z,35.82
2016-04-21T09:45:42.790Z,35.43
2016-04-21T09:46:42.762Z,35.43
2016-04-21T09:47:42.749Z,35.24
2016-04-21T09:48:42.736Z,35.63
2016-04-21T09:49:42.708Z,35.24
2016-04-21T09:50:42.695Z,35.53
2016-04-21T09:51:42.666Z,35.72
2016-04-21T09:52:42.701Z,35.43
2016-04-21T09:53:42.640Z,35.82
2016-04-21T09:54:42.612Z,35.72
2016-04-21T09:55:42.599Z,35.24
2016-04-21T09:56:42.570Z,35.34
2016-04-21T09:57:42.558Z,35.53
2016-04-21T09:58:42.544Z,35.43
2016-04-21T09:59:42.517Z,35.43
2016-04-21T10:00:42.706Z,35.43
2016-04-21T10:04:12.105Z,35.63
2016-04-21T10:04:40.732Z,35.72
2016-04-21T10:05:40.719Z,35.72
2016-04-21T10:06:40.691Z,35.53
2016-04-21T10:07:40.678Z,35.53
2016-04-21T10:08:40.649Z,35.53
2016-04-21T10:09:40.652Z,35.72
2016-04-21T10:10:40.656Z,35.74
2016-04-21T10:11:40.703Z,35.82
2016-04-21T10:12:40.718Z,36.01
2016-04-21T10:13:40.718Z,35.93
2016-04-21T10:14:40.749Z,35.74
2016-04-21T10:15:40.759Z,35.93
2016-04-21T10:16:40.763Z,35.64
2016-04-21T10:17:40.765Z,35.93
2016-04-21T10:18:40.737Z,35.83
2016-04-21T10:19:40.741Z,35.83
2016-04-21T10:20:40.735Z,35.93
2016-04-21T10:21:40.727Z,36.03
2016-04-21T10:22:40.722Z,35.45
2016-04-21T10:23:40.714Z,35.55
2016-04-21T10:24:40.535Z,35.83
2016-04-21T10:25:40.666Z,35.83
2016-04-21T10:26:40.654Z,35.74
2016-04-21T10:27:40.643Z,35.64
2016-04-21T10:28:40.633Z,35.45
2016-04-21T10:29:40.607Z,35.36
2016-04-21T10:30:40.579Z,35.26
2016-04-21T10:31:40.582Z,35.45
2016-04-21T10:32:40.554Z,35.36
2016-04-21T10:33:40.526Z,35.26
2016-04-21T10:34:40.514Z,35.47
2016-04-21T10:35:40.486Z,35.57
2016-04-21T10:36:40.473Z,35.18
2016-04-21T10:37:40.462Z,35.08
2016-04-21T10:38:40.432Z,34.99
2016-04-21T10:39:40.451Z,35.06
2016-04-21T10:40:40.407Z,35.06
2016-04-21T10:41:40.379Z,35.08
2016-04-21T10:42:40.366Z,34.8
2016-04-21T10:43:40.368Z,34.89
2016-04-21T10:44:40.340Z,34.89
2016-04-21T10:45:40.312Z,34.61
2016-04-21T10:46:40.486Z,34.61
2016-04-21T10:47:40.271Z,34.8
2016-04-21T10:48:40.257Z,34.51
2016-04-21T10:49:40.229Z,34.31
2016-04-21T10:50:40.216Z,34.41
2016-04-21T10:51:40.203Z,34.41
2016-04-21T10:52:40.175Z,34.31
2016-04-21T10:53:40.178Z,34.31
2016-04-21T10:54:40.445Z,34.51
2016-04-21T10:55:40.120Z,34.51
2016-04-21T10:56:40.106Z,34.61
2016-04-21T10:57:40.094Z,34.51
2016-04-21T10:58:40.066Z,34.51
2016-04-21T10:59:40.052Z,34.22
2016-04-21T11:00:40.039Z,33.95
2016-04-21T11:01:40.011Z,33.47
2016-04-21T11:02:40.514Z,33.66
2016-04-21T11:03:40.000Z,33.56
2016-04-21T11:04:39.957Z,33.56
2016-04-21T11:05:39.944Z,33.66
2016-04-21T11:06:39.931Z,33.75
2016-04-21T11:07:39.918Z,33.66
2016-04-21T11:08:39.889Z,33.75
2016-04-21T11:09:39.907Z,33.56
2016-04-21T11:10:40.504Z,33.37
2016-04-21T11:11:39.835Z,33.56
2016-04-21T11:12:39.807Z,33.75
2016-04-21T11:13:39.809Z,33.47
2016-04-21T11:14:39.780Z,33.56
2016-04-21T11:15:39.768Z,33.37
2016-04-21T11:16:39.740Z,33.37
2016-04-21T11:17:39.725Z,33.47
2016-04-21T11:18:39.759Z,33.37
2016-04-21T11:19:39.684Z,33.47
2016-04-21T11:20:39.671Z,33.18
2016-04-21T11:21:39.658Z,33.08
2016-04-21T11:22:39.631Z,33.18
2016-04-21T11:23:39.617Z,32.89
2016-04-21T11:24:39.604Z,32.79
2016-04-21T11:25:39.591Z,33.08
2016-04-21T11:26:40.500Z,33.1
2016-04-21T11:27:39.565Z,33.1
2016-04-21T11:28:39.553Z,33
2016-04-21T11:29:39.508Z,33
2016-04-21T11:30:39.480Z,33.1
2016-04-21T11:31:39.466Z,33.1
2016-04-21T11:32:39.453Z,33.2
2016-04-21T11:33:39.425Z,32.9
2016-04-21T11:34:39.819Z,32.9
2016-04-21T11:35:39.399Z,33.1
2016-04-21T11:36:39.371Z,33.29
2016-04-21T11:37:39.357Z,33
2016-04-21T11:38:39.344Z,32.52
2016-04-21T11:39:39.316Z,32.33
2016-04-21T11:40:39.304Z,32.52
2016-04-21T11:41:39.478Z,32.81
2016-04-21T11:42:39.277Z,32.52
2016-04-21T11:43:39.249Z,32.62
2016-04-21T11:44:39.236Z,32.71
2016-04-21T11:45:39.208Z,32.52
2016-04-21T11:46:39.210Z,32.54
2016-04-21T11:47:39.181Z,32.71
2016-04-21T11:48:39.168Z,32.73
2016-04-21T11:49:39.406Z,32.73
2016-04-21T11:50:39.127Z,32.44
2016-04-21T11:51:39.115Z,32.44
2016-04-21T11:52:39.117Z,32.82
2016-04-21T11:53:39.322Z,32.44
2016-04-21T11:54:39.059Z,32.44
2016-04-21T11:55:39.031Z,32.34
2016-04-21T11:56:39.018Z,32.15
2016-04-21T11:57:39.396Z,32.25
2016-04-21T11:58:38.990Z,32.25
2016-04-21T11:59:38.961Z,32.34
2016-04-21T12:00:38.948Z,32.25
2016-04-21T12:01:38.935Z,32.25
2016-04-21T12:02:38.906Z,32.26
2016-04-21T12:03:38.894Z,32.26
2016-04-21T12:04:38.881Z,32.26
2016-04-21T12:05:39.433Z,32.36
2016-04-21T12:06:38.839Z,32.17
2016-04-21T12:07:38.827Z,32.26
2016-04-21T12:08:38.797Z,32.26
2016-04-21T12:09:38.800Z,32.36
2016-04-21T12:10:38.772Z,32.07
2016-04-21T12:11:38.759Z,32.07
2016-04-21T12:12:38.730Z,31.98
2016-04-21T12:13:39.421Z,31.88
2016-04-21T12:14:38.704Z,31.88
2016-04-21T12:15:38.676Z,31.98
2016-04-21T12:16:38.663Z,31.99
2016-04-21T12:17:38.651Z,31.7
2016-04-21T12:18:38.621Z,31.59
2016-04-21T12:19:38.609Z,31.6
2016-04-21T12:20:38.595Z,31.6
2016-04-21T12:21:38.676Z,31.7
2016-04-21T12:22:38.554Z,31.6
2016-04-21T12:23:38.572Z,31.22
2016-04-21T12:24:38.529Z,31.32
2016-04-21T12:25:38.500Z,31.22
2016-04-21T12:26:38.487Z,31.32
2016-04-21T12:27:38.473Z,31.32
2016-04-21T12:28:38.462Z,31.12
2016-04-21T12:29:38.683Z,31.32
2016-04-21T12:30:38.419Z,31.04
2016-04-21T12:31:38.406Z,30.94
2016-04-21T12:32:38.394Z,30.94
2016-04-21T12:33:38.365Z,30.76
2016-04-21T12:34:38.352Z,30.46
2016-04-21T12:35:38.339Z,30.85
2016-04-21T12:36:38.326Z,30.76
2016-04-21T12:37:38.688Z,30.85
2016-04-21T12:38:38.285Z,30.66
2016-04-21T12:39:38.272Z,30.67
2016-04-21T12:40:38.243Z,30.38
2016-04-21T12:41:38.230Z,30.38
2016-04-21T12:42:38.218Z,30.48
2016-04-21T12:43:38.189Z,30.19
2016-04-21T12:44:38.176Z,30.48
2016-04-21T12:45:38.179Z,30.48
2016-04-21T12:46:38.149Z,30.21
2016-04-21T12:47:38.121Z,30.79
2016-04-21T12:48:38.109Z,31.46
2016-04-21T12:49:38.095Z,32.04
2016-04-21T12:50:38.083Z,33.12
2016-04-21T12:51:38.054Z,33.7
2016-04-21T12:52:38.041Z,34.78
2016-04-21T12:53:38.029Z,34.39
2016-04-21T12:54:38.000Z,34.23
2016-04-21T12:55:37.987Z,33.84
2016-04-21T12:56:37.973Z,32.6
2016-04-21T12:57:37.992Z,31.47